createdAt,value
2018-02-03T12:17:25.357Z,4.51
2018-02-03T12:18:25.377Z,4.55
2018-02-03T12:19:25.200Z,4.59
2018-02-03T12:20:25.189Z,4.53
2018-02-03T12:21:25.271Z,4.53
2018-02-03T12:22:25.236Z,4.56
2018-02-03T12:23:25.365Z,4.59
2018-02-03T12:24:25.276Z,4.62
2018-02-03T12:25:25.401Z,4.6
2018-02-03T12:26:25.418Z,4.63
2018-02-03T12:27:25.219Z,4.69
2018-02-03T12:28:25.254Z,4.69
2018-02-03T12:29:25.503Z,4.69
2018-02-03T12:30:25.299Z,4.67
2018-02-03T12:31:25.206Z,4.69
2018-02-03T12:32:25.432Z,4.67
2018-02-03T12:33:25.515Z,4.67
2018-02-03T12:34:25.480Z,4.67
2018-02-03T12:35:25.371Z,4.66
2018-02-03T12:36:25.207Z,4.67
2018-02-03T12:37:25.202Z,4.67
2018-02-03T12:38:25.387Z,4.66
2018-02-03T12:39:25.216Z,4.66
2018-02-03T12:40:25.235Z,4.69
2018-02-03T12:41:25.229Z,4.66
2018-02-03T12:42:25.193Z,4.67
2018-02-03T12:43:25.217Z,4.69
2018-02-03T12:44:25.260Z,4.69
2018-02-03T12:45:25.196Z,4.69
2018-02-03T12:46:25.265Z,4.74
2018-02-03T12:47:25.256Z,4.69
2018-02-03T12:48:25.237Z,4.72
2018-02-03T12:49:25.234Z,4.69
2018-02-03T12:50:25.252Z,4.65
2018-02-03T12:51:25.270Z,4.65
2018-02-03T12:52:25.233Z,4.57
2018-02-03T12:53:25.206Z,4.6
2018-02-03T12:54:25.245Z,4.63
2018-02-03T12:55:25.264Z,4.66
2018-02-03T12:56:25.272Z,4.69
2018-02-03T12:57:25.221Z,4.69
2018-02-03T12:58:25.273Z,4.7
2018-02-03T12:59:25.328Z,4.7
2018-02-03T13:00:25.256Z,4.73
2018-02-03T13:01:25.241Z,4.7
2018-02-03T13:02:25.210Z,4.74
2018-02-03T13:03:25.299Z,4.77
2018-02-03T13:04:25.233Z,4.79
2018-02-03T13:05:25.277Z,4.77
2018-02-03T13:06:25.247Z,4.74
2018-02-03T13:07:25.218Z,4.79
2018-02-03T13:08:25.186Z,4.77
2018-02-03T13:09:25.191Z,4.76
2018-02-03T13:10:25.208Z,4.77
2018-02-03T13:11:25.259Z,4.76
2018-02-03T13:12:25.163Z,4.74
2018-02-03T13:13:25.236Z,4.72
2018-02-03T13:14:25.253Z,4.73
2018-02-03T13:15:25.259Z,4.74
2018-02-03T13:16:25.613Z,4.74
2018-02-03T13:17:25.489Z,4.73
2018-02-03T13:18:25.141Z,4.76
2018-02-03T13:19:25.120Z,4.77
2018-02-03T13:20:25.085Z,4.81
2018-02-03T13:21:25.145Z,4.86
2018-02-03T13:22:25.190Z,4.88
2018-02-03T13:23:25.236Z,4.91
2018-02-03T13:24:25.162Z,4.95
2018-02-03T13:25:25.146Z,4.94
2018-02-03T13:26:25.365Z,4.88
2018-02-03T13:27:25.286Z,4.91
2018-02-03T13:28:25.358Z,4.91
2018-02-03T13:29:25.146Z,4.94
2018-02-03T13:30:25.193Z,4.95
2018-02-03T13:31:24.860Z,4.94
2018-02-03T13:32:25.119Z,4.91
2018-02-03T13:33:25.361Z,4.93
2018-02-03T13:34:25.592Z,4.9
2018-02-03T13:35:25.084Z,4.91
2018-02-03T13:36:25.279Z,4.91
2018-02-03T13:37:26.103Z,4.88
2018-02-03T13:38:25.161Z,4.88
2018-02-03T13:39:25.123Z,4.93
2018-02-03T13:40:25.113Z,4.91
2018-02-03T13:41:25.091Z,4.91
2018-02-03T13:42:25.138Z,4.94
2018-02-03T13:43:25.137Z,4.9
2018-02-03T13:44:25.159Z,4.91
2018-02-03T13:45:25.175Z,4.91
2018-02-03T13:46:25.076Z,4.9
2018-02-03T13:47:25.074Z,4.9
2018-02-03T13:48:25.209Z,4.88
2018-02-03T13:49:25.255Z,4.9
2018-02-03T13:50:25.237Z,4.9
2018-02-03T13:51:25.239Z,4.91
2018-02-03T13:52:25.151Z,4.84
2018-02-03T13:53:25.777Z,4.84
2018-02-03T13:54:25.262Z,4.84
2018-02-03T13:55:25.194Z,4.83
2018-02-03T13:56:25.274Z,4.81
2018-02-03T13:57:25.166Z,4.79
2018-02-03T13:58:25.312Z,4.79
2018-02-03T13:59:25.173Z,4.76
2018-02-03T14:00:25.270Z,4.77
2018-02-03T14:01:25.215Z,4.79
2018-02-03T14:02:25.254Z,4.77
2018-02-03T14:03:25.289Z,4.8
2018-02-03T14:04:25.182Z,4.81
2018-02-03T14:05:25.264Z,4.8
2018-02-03T14:06:25.367Z,4.8
2018-02-03T14:07:25.287Z,4.83
2018-02-03T14:08:25.277Z,4.81
2018-02-03T14:09:25.170Z,4.81
2018-02-03T14:10:25.347Z,4.81
2018-02-03T14:11:25.266Z,4.79
2018-02-03T14:12:25.206Z,4.8
2018-02-03T14:13:25.205Z,4.8
2018-02-03T14:14:25.250Z,4.81
2018-02-03T14:15:25.215Z,4.81
2018-02-03T14:16:25.247Z,4.84
2018-02-03T14:17:25.227Z,4.81
2018-02-03T14:18:25.264Z,4.83
2018-02-03T14:19:25.274Z,4.79
2018-02-03T14:20:25.357Z,4.77
2018-02-03T14:21:25.347Z,4.79
2018-02-03T14:22:25.415Z,4.79
2018-02-03T14:23:25.379Z,4.77
2018-02-03T14:24:25.320Z,4.77
2018-02-03T14:25:25.331Z,4.79
2018-02-03T14:26:25.464Z,4.8
2018-02-03T14:27:25.321Z,4.8
2018-02-03T14:28:25.369Z,4.76
2018-02-03T14:29:25.365Z,4.74
2018-02-03T14:30:25.434Z,4.76
2018-02-03T14:31:25.350Z,4.74
2018-02-03T14:32:25.279Z,4.74
2018-02-03T14:33:25.571Z,4.73
2018-02-03T14:34:25.326Z,4.73
2018-02-03T14:35:25.443Z,4.7
2018-02-03T14:36:25.521Z,4.72
2018-02-03T14:37:25.266Z,4.7
2018-02-03T14:38:25.375Z,4.69
2018-02-03T14:39:25.444Z,4.69
2018-02-03T14:40:25.286Z,4.69
2018-02-03T14:41:25.324Z,4.67
2018-02-03T14:42:25.382Z,4.67
2018-02-03T14:43:25.417Z,4.67
2018-02-03T14:44:25.402Z,4.67
2018-02-03T14:45:25.315Z,4.66
2018-02-03T14:46:25.334Z,4.66
2018-02-03T14:47:25.266Z,4.66
2018-02-03T14:48:25.331Z,4.67
2018-02-03T14:49:25.460Z,4.63
2018-02-03T14:50:25.353Z,4.63
2018-02-03T14:51:25.318Z,4.59
2018-02-03T14:52:25.458Z,4.55
2018-02-03T14:53:25.394Z,4.56
2018-02-03T14:54:25.328Z,4.55
2018-02-03T14:55:25.416Z,4.51
2018-02-03T14:56:25.427Z,4.49
2018-02-03T14:57:25.360Z,4.45
2018-02-03T14:58:25.335Z,4.46
2018-02-03T14:59:25.371Z,4.35
2018-02-03T15:00:25.810Z,4.15
2018-02-03T15:01:25.322Z,3.94
2018-02-03T15:02:25.437Z,3.82
2018-02-03T15:03:25.368Z,3.63
2018-02-03T15:04:25.484Z,3.46
2018-02-03T15:05:25.335Z,3.39
2018-02-03T15:06:25.431Z,3.17
2018-02-03T15:07:25.554Z,3.17
2018-02-03T15:08:25.410Z,3.17
2018-02-03T15:09:25.440Z,3.01
2018-02-03T15:10:25.396Z,2.97
2018-02-03T15:11:25.465Z,2.82
2018-02-03T15:12:25.330Z,2.71
2018-02-03T15:13:25.350Z,2.66
2018-02-03T15:14:25.355Z,2.64
2018-02-03T15:15:25.471Z,2.66
2018-02-03T15:16:25.461Z,2.72
2018-02-03T15:17:25.376Z,2.75
2018-02-03T15:18:25.461Z,2.76
2018-02-03T15:19:24.538Z,2.79
2018-02-03T15:20:24.628Z,2.83
2018-02-03T15:21:24.578Z,2.75
2018-02-03T15:22:24.568Z,2.82
2018-02-03T15:23:24.709Z,2.8
2018-02-03T15:24:24.593Z,2.84
2018-02-03T15:25:24.599Z,2.92
2018-02-03T15:26:24.668Z,2.9
2018-02-03T15:27:24.612Z,2.93
2018-02-03T15:28:24.592Z,2.97
2018-02-03T15:29:24.524Z,3.01
2018-02-03T15:30:24.554Z,3.03
2018-02-03T15:31:24.564Z,3.07
2018-02-03T15:32:24.856Z,3.11
2018-02-03T15:33:24.658Z,3.12
2018-02-03T15:34:24.629Z,3.18
2018-02-03T15:35:24.658Z,3.18
2018-02-03T15:36:24.659Z,3.25
2018-02-03T15:37:24.633Z,3.21
2018-02-03T15:38:24.534Z,3.21
2018-02-03T15:39:24.644Z,3.21
2018-02-03T15:40:24.742Z,3.21
2018-02-03T15:41:24.579Z,3.22
2018-02-03T15:42:24.602Z,3.25
2018-02-03T15:43:24.690Z,3.28
2018-02-03T15:44:24.616Z,3.34
2018-02-03T15:45:24.639Z,3.32
2018-02-03T15:46:24.642Z,3.29
2018-02-03T15:47:24.659Z,3.27
2018-02-03T15:48:24.687Z,3.29
2018-02-03T15:49:24.621Z,3.29
2018-02-03T15:50:24.755Z,3.27
2018-02-03T15:51:24.907Z,3.28
2018-02-03T15:52:24.890Z,3.29
2018-02-03T15:53:24.855Z,3.32
2018-02-03T15:54:24.810Z,3.31
2018-02-03T15:55:24.814Z,3.32
2018-02-03T15:56:24.837Z,3.27
2018-02-03T15:57:24.879Z,3.28
2018-02-03T15:58:24.930Z,3.29
2018-02-03T15:59:24.904Z,3.29
2018-02-03T16:00:24.866Z,3.28
2018-02-03T16:01:24.889Z,3.27
2018-02-03T16:02:24.902Z,3.25
2018-02-03T16:03:24.829Z,3.18
2018-02-03T16:04:24.801Z,3.18
2018-02-03T16:05:24.801Z,3.18
2018-02-03T16:06:24.811Z,3.21
2018-02-03T16:07:25.170Z,3.21
2018-02-03T16:10:46.029Z,3.22
2018-02-03T16:11:24.872Z,3.24
2018-02-03T16:12:24.841Z,3.22
2018-02-03T16:13:24.897Z,3.21
2018-02-03T16:14:24.800Z,3.22
2018-02-03T16:16:24.803Z,3.22
2018-02-03T16:17:24.806Z,3.21
2018-02-03T16:18:24.935Z,3.2
2018-02-03T16:19:24.852Z,3.18
2018-02-03T16:20:24.970Z,3.2
2018-02-03T16:21:25.011Z,3.22
2018-02-03T16:22:24.962Z,3.24
2018-02-03T16:23:25.058Z,3.24
2018-02-03T16:24:24.881Z,3.15
2018-02-03T16:25:24.946Z,3.15
2018-02-03T16:26:24.921Z,3.11
2018-02-03T16:27:24.992Z,3.18
2018-02-03T16:28:25.024Z,3.21
2018-02-03T16:29:24.972Z,3.2
2018-02-03T16:30:24.911Z,3.18
2018-02-03T16:31:24.981Z,3.17
2018-02-03T16:32:25.037Z,3.12
2018-02-03T16:33:24.985Z,3.15
2018-02-03T16:34:25.045Z,3.17
2018-02-03T16:35:24.935Z,3.15
2018-02-03T16:36:24.964Z,3.18
2018-02-03T16:37:25.006Z,3.17
2018-02-03T16:38:24.954Z,3.21
2018-02-03T16:39:25.041Z,3.21
2018-02-03T16:40:25.002Z,3.2
2018-02-03T16:41:25.190Z,3.2
2018-02-03T16:42:25.008Z,3.12
2018-02-03T16:43:25.074Z,3.11
2018-02-03T16:44:24.995Z,3.17
2018-02-03T16:45:25.075Z,3.22
2018-02-03T16:46:25.008Z,3.2
2018-02-03T16:47:25.018Z,3.21
2018-02-03T16:48:24.994Z,3.31
2018-02-03T16:49:24.989Z,3.31
2018-02-03T16:50:24.989Z,3.35
2018-02-03T16:51:25.027Z,3.31
2018-02-03T16:52:25.164Z,3.31
2018-02-03T16:53:25.068Z,3.31
2018-02-03T16:54:25.482Z,3.35
2018-02-03T16:55:25.161Z,3.39
2018-02-03T16:56:24.999Z,3.35
2018-02-03T16:57:25.068Z,3.37
2018-02-03T16:58:24.999Z,3.39
2018-02-03T16:59:25.067Z,3.39
2018-02-03T17:00:25.075Z,3.44
2018-02-03T17:01:24.979Z,3.41
2018-02-03T17:02:25.084Z,3.39
2018-02-03T17:03:25.115Z,3.41
2018-02-03T17:04:25.131Z,3.41
2018-02-03T17:05:25.036Z,3.37
2018-02-03T17:06:25.095Z,3.35
2018-02-03T17:07:25.264Z,3.34
2018-02-03T17:08:25.022Z,3.29
2018-02-03T17:09:25.098Z,3.25
2018-02-03T17:10:25.114Z,3.25
2018-02-03T17:11:25.061Z,3.22
2018-02-03T17:12:24.973Z,3.28
2018-02-03T17:13:24.999Z,3.22
2018-02-03T17:14:25.031Z,3.2
2018-02-03T17:15:25.085Z,3.14
2018-02-03T17:16:24.949Z,3.14
2018-02-03T17:17:25.070Z,3.12
2018-02-03T17:18:24.996Z,3.1
2018-02-03T17:19:25.040Z,3.1
2018-02-03T17:20:25.140Z,3.11
2018-02-03T17:21:25.366Z,3.12
2018-02-03T17:22:25.262Z,3.12
2018-02-03T17:23:25.307Z,3.15
2018-02-03T17:24:25.302Z,3.21
2018-02-03T17:25:25.231Z,3.2
2018-02-03T17:26:25.200Z,3.24
2018-02-03T17:27:25.572Z,3.2
2018-02-03T17:28:25.976Z,3.22
2018-02-03T17:29:25.203Z,3.18
2018-02-03T17:30:25.266Z,3.2
2018-02-03T17:31:25.199Z,3.2
2018-02-03T17:32:25.491Z,3.17
2018-02-03T17:33:25.464Z,3.17
2018-02-03T17:34:25.350Z,3.21
2018-02-03T17:35:25.297Z,3.2
2018-02-03T17:36:25.211Z,3.21
2018-02-03T17:37:25.381Z,3.22
2018-02-03T17:38:25.398Z,3.24
2018-02-03T17:39:25.441Z,3.27
2018-02-03T17:40:25.278Z,3.27
2018-02-03T17:41:25.294Z,3.31
2018-02-03T17:42:25.410Z,3.31
2018-02-03T17:43:25.265Z,3.34
2018-02-03T17:44:25.334Z,3.37
2018-02-03T17:45:25.852Z,3.38
2018-02-03T17:46:25.445Z,3.41
2018-02-03T17:47:25.323Z,3.41
2018-02-03T17:48:25.547Z,3.41
2018-02-03T17:49:25.265Z,3.41
2018-02-03T17:50:26.017Z,3.37
2018-02-03T17:51:25.247Z,3.34
2018-02-03T17:52:25.359Z,3.35
2018-02-03T17:53:25.178Z,3.35
2018-02-03T17:54:25.150Z,3.35
2018-02-03T17:55:25.173Z,3.32
2018-02-03T17:56:25.279Z,3.32
2018-02-03T17:57:25.190Z,3.28
2018-02-03T17:58:25.175Z,3.24
2018-02-03T17:59:25.131Z,3.24
2018-02-03T18:00:25.151Z,3.24
2018-02-03T18:01:25.230Z,3.24
2018-02-03T18:02:25.369Z,3.22
2018-02-03T18:03:25.345Z,3.21
2018-02-03T18:04:25.211Z,3.17
2018-02-03T18:05:25.203Z,3.17
2018-02-03T18:06:25.234Z,3.18
2018-02-03T18:07:25.276Z,3.21
2018-02-03T18:08:25.322Z,3.18
2018-02-03T18:09:25.227Z,3.21
2018-02-03T18:10:25.168Z,3.15
2018-02-03T18:11:25.224Z,3.2
2018-02-03T18:12:25.229Z,3.2
2018-02-03T18:13:25.212Z,3.21
2018-02-03T18:14:25.182Z,3.25
2018-02-03T18:15:25.215Z,3.24
2018-02-03T18:16:25.398Z,3.22
2018-02-03T18:17:25.128Z,3.25
2018-02-03T18:18:25.304Z,3.24
2018-02-03T18:19:25.225Z,3.17
2018-02-03T18:20:25.210Z,3.18
2018-02-03T18:21:25.190Z,3.17
2018-02-03T18:22:25.325Z,3.15
2018-02-03T18:23:25.408Z,3.11
2018-02-03T18:24:25.365Z,3.1
2018-02-03T18:25:25.440Z,3.11
2018-02-03T18:26:25.365Z,3.08
2018-02-03T18:27:25.300Z,3.07
2018-02-03T18:28:25.491Z,3.11
2018-02-03T18:29:25.490Z,3.1
2018-02-03T18:30:25.484Z,3.04
2018-02-03T18:31:25.555Z,3.04
2018-02-03T18:32:25.406Z,3.04
2018-02-03T18:33:25.464Z,3.04
2018-02-03T18:34:25.419Z,3.04
2018-02-03T18:35:25.346Z,3.01
2018-02-03T18:36:25.420Z,3.01
2018-02-03T18:37:25.318Z,3.01
2018-02-03T18:38:25.307Z,3
2018-02-03T18:39:25.399Z,2.99
2018-02-03T18:40:25.408Z,2.99
2018-02-03T18:41:25.470Z,2.97
2018-02-03T18:42:25.556Z,2.99
2018-02-03T18:43:25.413Z,2.96
2018-02-03T18:44:25.419Z,2.94
2018-02-03T18:45:25.436Z,2.96
2018-02-03T18:46:25.433Z,2.92
2018-02-03T18:47:25.341Z,2.94
2018-02-03T18:48:28.645Z,2.92
2018-02-03T18:49:26.628Z,2.94
2018-02-03T18:50:25.372Z,2.96
2018-02-03T18:51:30.644Z,2.97
2018-02-03T18:52:24.498Z,2.94
2018-02-03T18:53:24.585Z,2.97
2018-02-03T18:54:24.479Z,2.94
2018-02-03T18:55:24.489Z,2.94
2018-02-03T18:56:24.507Z,2.93
2018-02-03T18:57:24.614Z,2.9
2018-02-03T18:58:24.597Z,2.92
2018-02-03T18:59:24.581Z,2.86
2018-02-03T19:00:24.558Z,2.93
2018-02-03T19:01:24.544Z,2.93
2018-02-03T19:02:24.556Z,2.96
2018-02-03T19:03:24.512Z,2.94
2018-02-03T19:04:24.614Z,2.92
2018-02-03T19:05:24.586Z,2.92
2018-02-03T19:06:24.543Z,2.96
2018-02-03T19:07:24.464Z,2.97
2018-02-03T19:08:24.615Z,2.96
2018-02-03T19:09:24.487Z,2.99
2018-02-03T19:10:24.548Z,2.94
2018-02-03T19:11:24.449Z,2.97
2018-02-03T19:12:24.467Z,2.97
2018-02-03T19:13:24.549Z,3
2018-02-03T19:14:24.539Z,3.01
2018-02-03T19:15:24.610Z,3
2018-02-03T19:16:24.852Z,3.01
2018-02-03T19:17:24.602Z,3
2018-02-03T19:18:24.475Z,3.01
2018-02-03T19:19:24.602Z,2.97
2018-02-03T19:20:24.544Z,3
2018-02-03T19:21:24.606Z,2.99
2018-02-03T19:22:24.688Z,3.01
2018-02-03T19:23:25.073Z,2.99
2018-02-03T19:24:24.955Z,3
2018-02-03T19:25:25.168Z,3.01
2018-02-03T19:26:25.009Z,3
2018-02-03T19:27:24.945Z,2.97
2018-02-03T19:28:25.247Z,2.99
2018-02-03T19:29:24.962Z,2.97
2018-02-03T19:30:25.004Z,2.97
2018-02-03T19:31:24.872Z,2.96
2018-02-03T19:32:24.894Z,2.97
2018-02-03T19:33:25.073Z,2.97
2018-02-03T19:34:25.013Z,3
2018-02-03T19:35:25.054Z,2.96
2018-02-03T19:36:24.959Z,2.96
2018-02-03T19:37:24.891Z,2.94
2018-02-03T19:38:25.175Z,2.96
2018-02-03T19:39:25.036Z,2.94
2018-02-03T19:40:24.934Z,2.94
2018-02-03T19:41:25.317Z,2.96
2018-02-03T19:42:25.317Z,2.93
2018-02-03T19:43:25.045Z,2.94
2018-02-03T19:44:25.072Z,2.93
2018-02-03T19:45:25.046Z,2.94
2018-02-03T19:46:24.949Z,2.94
2018-02-03T19:47:25.006Z,2.94
2018-02-03T19:48:24.977Z,2.92
2018-02-03T19:49:24.982Z,2.93
2018-02-03T19:50:25.129Z,2.92
2018-02-03T19:51:25.007Z,2.93
2018-02-03T19:52:25.044Z,2.9
2018-02-03T19:53:24.985Z,2.92
2018-02-03T19:54:25.004Z,2.92
2018-02-03T19:55:25.257Z,2.89
2018-02-03T19:56:25.147Z,2.89
2018-02-03T19:57:25.047Z,2.93
2018-02-03T19:58:25.066Z,2.93
2018-02-03T19:59:24.986Z,2.93
2018-02-03T20:00:25.020Z,2.97
2018-02-03T20:01:24.999Z,2.94
2018-02-03T20:02:25.078Z,2.94
2018-02-03T20:03:25.049Z,2.94
2018-02-03T20:04:25.059Z,2.93
2018-02-03T20:05:25.102Z,2.94
2018-02-03T20:06:25.074Z,2.93
2018-02-03T20:07:25.240Z,2.92
2018-02-03T20:08:25.270Z,2.92
2018-02-03T20:09:25.005Z,2.92
2018-02-03T20:10:25.064Z,2.92
2018-02-03T20:11:25.140Z,2.92
2018-02-03T20:12:25.257Z,2.89
2018-02-03T20:13:25.078Z,2.9
2018-02-03T20:14:25.295Z,2.89
2018-02-03T20:15:25.155Z,2.89
2018-02-03T20:16:25.049Z,2.87
2018-02-03T20:17:24.978Z,2.87
2018-02-03T20:18:25.062Z,2.89
2018-02-03T20:19:25.103Z,2.87
2018-02-03T20:20:25.006Z,2.87
2018-02-03T20:21:25.194Z,2.87
2018-02-03T20:22:24.999Z,2.86
2018-02-03T20:23:26.183Z,2.87
2018-02-03T20:24:25.585Z,2.86
2018-02-03T20:25:25.025Z,2.87
2018-02-03T20:26:25.097Z,2.84
2018-02-03T20:27:25.066Z,2.87
2018-02-03T20:28:25.046Z,2.86
2018-02-03T20:29:25.105Z,2.87
2018-02-03T20:30:25.089Z,2.86
2018-02-03T20:31:25.082Z,2.89
2018-02-03T20:32:25.130Z,2.9
2018-02-03T20:33:25.135Z,2.89
2018-02-03T20:34:25.267Z,2.89
2018-02-03T20:35:24.979Z,2.89
2018-02-03T20:36:25.041Z,2.89
2018-02-03T20:37:25.183Z,2.92
2018-02-03T20:38:25.082Z,2.93
2018-02-03T20:39:25.013Z,2.93
2018-02-03T20:40:25.184Z,2.92
2018-02-03T20:41:25.061Z,2.93
2018-02-03T20:42:25.076Z,2.96
2018-02-03T20:43:25.072Z,2.97
2018-02-03T20:44:25.026Z,2.97
2018-02-03T20:45:24.960Z,2.99
2018-02-03T20:46:25.055Z,2.96
2018-02-03T20:47:25.181Z,2.96
2018-02-03T20:48:25.063Z,3
2018-02-03T20:49:25.042Z,3
2018-02-03T20:50:25.094Z,3.03
2018-02-03T20:51:25.098Z,3.03
2018-02-03T20:52:25.110Z,3.04
2018-02-03T20:53:25.052Z,3.06
2018-02-03T20:54:25.074Z,3.04
2018-02-03T20:55:25.088Z,3.06
2018-02-03T20:56:24.978Z,3.03
2018-02-03T20:57:25.078Z,3.04
2018-02-03T20:58:25.053Z,3.06
2018-02-03T20:59:25.090Z,3.04
2018-02-03T21:00:25.183Z,3.07
2018-02-03T21:01:25.059Z,3.06
2018-02-03T21:02:25.043Z,3.06
2018-02-03T21:03:25.062Z,3.08
2018-02-03T21:04:25.184Z,3.03
2018-02-03T21:05:25.066Z,3.06
2018-02-03T21:06:25.056Z,3.06
2018-02-03T21:07:25.097Z,3.08
2018-02-03T21:08:25.023Z,3.07
2018-02-03T21:09:25.012Z,3.07
2018-02-03T21:10:25.071Z,3.07
2018-02-03T21:11:25.018Z,3.11
2018-02-03T21:12:25.051Z,3.12
2018-02-03T21:13:25.585Z,3.14
2018-02-03T21:14:25.333Z,3.17
2018-02-03T21:15:24.988Z,3.15
2018-02-03T21:16:25.065Z,3.18
2018-02-03T21:17:25.149Z,3.17
2018-02-03T21:18:25.181Z,3.18
2018-02-03T21:19:25.090Z,3.18
2018-02-03T21:20:25.096Z,3.17
2018-02-03T21:21:25.043Z,3.14
2018-02-03T21:22:25.084Z,3.14
2018-02-03T21:23:25.177Z,3.14
2018-02-03T21:24:25.130Z,3.14
2018-02-03T21:25:25.047Z,3.15
2018-02-03T21:26:24.952Z,3.15
2018-02-03T21:27:24.960Z,3.14
2018-02-03T21:28:24.883Z,3.12
2018-02-03T21:29:24.915Z,3.11
2018-02-03T21:30:24.939Z,3.1
2018-02-03T21:31:24.935Z,3.11
2018-02-03T21:32:24.842Z,3.1
2018-02-03T21:33:24.963Z,3.12
2018-02-03T21:34:24.917Z,3.1
2018-02-03T21:35:25.097Z,3.14
2018-02-03T21:36:24.992Z,3.11
2018-02-03T21:37:24.945Z,3.11
2018-02-03T21:38:24.872Z,3.11
2018-02-03T21:39:24.965Z,3.14
2018-02-03T21:40:24.900Z,3.15
2018-02-03T21:41:24.949Z,3.14
2018-02-03T21:42:24.874Z,3.15
2018-02-03T21:43:24.861Z,3.18
2018-02-03T21:44:25.000Z,3.18
2018-02-03T21:45:25.018Z,3.15
2018-02-03T21:46:24.960Z,3.17
2018-02-03T21:47:25.025Z,3.18
2018-02-03T21:48:24.969Z,3.2
2018-02-03T21:49:24.881Z,3.18
2018-02-03T21:50:25.232Z,3.21
2018-02-03T21:51:25.869Z,3.2
2018-02-03T21:52:25.054Z,3.2
2018-02-03T21:53:25.075Z,3.18
2018-02-03T21:54:24.871Z,3.21
2018-02-03T21:55:25.325Z,3.2
2018-02-03T21:56:24.609Z,3.18
2018-02-03T21:57:24.532Z,3.17
2018-02-03T21:58:24.554Z,3.17
2018-02-03T21:59:24.570Z,3.17
2018-02-03T22:00:24.659Z,3.17
2018-02-03T22:01:24.606Z,3.18
2018-02-03T22:02:24.572Z,3.15
2018-02-03T22:03:24.572Z,3.17
2018-02-03T22:04:24.649Z,3.17
2018-02-03T22:05:24.535Z,3.17
2018-02-03T22:06:24.530Z,3.17
2018-02-03T22:07:24.559Z,3.17
2018-02-03T22:08:24.504Z,3.18
2018-02-03T22:09:24.543Z,3.17
2018-02-03T22:10:25.281Z,3.17
2018-02-03T22:11:24.626Z,3.14
2018-02-03T22:12:25.872Z,3.14
2018-02-03T22:13:27.308Z,3.14
2018-02-03T22:14:24.542Z,3.14
2018-02-03T22:15:24.643Z,3.15
2018-02-03T22:16:24.563Z,3.15
2018-02-03T22:17:24.567Z,3.15
2018-02-03T22:18:24.450Z,3.17
2018-02-03T22:19:24.550Z,3.17
2018-02-03T22:20:24.493Z,3.17
2018-02-03T22:21:24.880Z,3.17
2018-02-03T22:22:24.605Z,3.17
2018-02-03T22:23:24.640Z,3.18
2018-02-03T22:24:25.426Z,3.17
2018-02-03T22:25:25.724Z,3.18
2018-02-03T22:26:24.571Z,3.17
2018-02-03T22:27:25.087Z,3.14
2018-02-03T22:28:24.979Z,3.12
2018-02-03T22:29:25.262Z,3.1
2018-02-03T22:30:24.915Z,3.1
2018-02-03T22:31:25.031Z,3.08
2018-02-03T22:32:25.057Z,3.1
2018-02-03T22:33:24.975Z,3.07
2018-02-03T22:34:25.013Z,3.06
2018-02-03T22:35:25.059Z,3.07
2018-02-03T22:36:25.710Z,3.03
2018-02-03T22:37:26.579Z,3.07
2018-02-03T22:38:26.942Z,3.06
2018-02-03T22:39:27.941Z,3.06
2018-02-03T22:40:28.754Z,3.04
2018-02-03T22:41:26.479Z,3.06
2018-02-03T22:42:25.159Z,3.03
2018-02-03T22:43:25.061Z,3.03
2018-02-03T22:44:24.967Z,3
2018-02-03T22:45:26.285Z,2.97
2018-02-03T22:46:25.017Z,2.99
2018-02-03T22:47:25.798Z,2.96
2018-02-03T22:48:25.037Z,2.93
2018-02-03T22:49:25.501Z,2.97
2018-02-03T22:50:25.027Z,2.99
2018-02-03T22:51:24.954Z,2.97
2018-02-03T22:52:25.832Z,3
2018-02-03T22:53:25.879Z,2.99
2018-02-03T22:54:25.244Z,3
2018-02-03T22:55:25.626Z,3.01
2018-02-03T22:56:28.525Z,3.03
2018-02-03T22:57:24.800Z,3
2018-02-03T22:58:24.692Z,3.03
2018-02-03T22:59:24.688Z,3.03
2018-02-03T23:00:24.771Z,3.04
2018-02-03T23:01:24.815Z,3.04
2018-02-03T23:02:24.877Z,3.04
2018-02-03T23:03:24.740Z,3
2018-02-03T23:04:24.788Z,3.03
2018-02-03T23:05:24.648Z,3.03
2018-02-03T23:06:24.706Z,3.04
2018-02-03T23:07:24.765Z,3.03
2018-02-03T23:08:24.842Z,3.01
2018-02-03T23:09:24.679Z,3.01
2018-02-03T23:10:24.648Z,3.01
2018-02-03T23:11:24.639Z,3
2018-02-03T23:12:24.662Z,2.99
2018-02-03T23:13:24.674Z,2.99
2018-02-03T23:14:24.740Z,2.99
2018-02-03T23:15:24.720Z,2.99
2018-02-03T23:16:24.746Z,2.94
2018-02-03T23:17:24.649Z,3
2018-02-03T23:18:24.775Z,2.96
2018-02-03T23:19:24.779Z,2.96
2018-02-03T23:20:24.756Z,2.96
2018-02-03T23:21:24.713Z,2.97
2018-02-03T23:22:24.697Z,2.96
2018-02-03T23:23:24.790Z,2.99
2018-02-03T23:24:24.670Z,2.96
2018-02-03T23:25:24.711Z,2.97
2018-02-03T23:26:24.725Z,2.97
2018-02-03T23:27:24.790Z,2.96
2018-02-03T23:28:24.989Z,2.93
2018-02-03T23:29:25.011Z,2.93
2018-02-03T23:30:24.812Z,2.94
2018-02-03T23:31:24.951Z,2.93
2018-02-03T23:32:24.921Z,2.92
2018-02-03T23:33:24.894Z,2.9
2018-02-03T23:34:24.839Z,2.9
2018-02-03T23:35:24.925Z,2.89
2018-02-03T23:36:24.880Z,2.89
2018-02-03T23:37:24.923Z,2.86
2018-02-03T23:38:24.868Z,2.89
2018-02-03T23:39:24.882Z,2.87
2018-02-03T23:40:24.945Z,2.87
2018-02-03T23:41:24.968Z,2.87
2018-02-03T23:42:24.925Z,2.87
2018-02-03T23:43:24.902Z,2.84
2018-02-03T23:44:24.884Z,2.83
2018-02-03T23:45:24.894Z,2.86
2018-02-03T23:46:24.929Z,2.82
2018-02-03T23:47:24.939Z,2.82
2018-02-03T23:48:24.969Z,2.8
2018-02-03T23:49:24.850Z,2.79
2018-02-03T23:50:24.958Z,2.79
2018-02-03T23:51:24.851Z,2.76
2018-02-03T23:52:24.867Z,2.79
2018-02-03T23:53:24.868Z,2.77
2018-02-03T23:54:24.889Z,2.75
2018-02-03T23:55:24.854Z,2.77
2018-02-03T23:56:24.853Z,2.76
2018-02-03T23:57:24.863Z,2.77
2018-02-03T23:58:24.904Z,2.79
2018-02-03T23:59:24.704Z,2.77
